Dunloy, United Kingdom
Current Conditions -  °F | °C
As of 2:50 PM on Wednesday 26 Nov 2014 (Local Time) from EGAA Reporting Station
Broken Clouds Broken Clouds  
Wind Chill: 45°   Ceiling: 3300
Heat Index: 45°   Visibility: 5mi
Dew Point: 45°   Wind: 3mph
Humidity: 100%   Direction: 60°ENE
Pressure: 29.88"   Gusts: NA
Location:  55.01°N, 6.41°W
Report Text: EGAA 261450Z 06003KT 8000 BKN033 BKN048 07/07 Q1012
Loading
Personal Weather Stations






























Interactive Weather Map New forecast layout! Learn more

10-Day Weather Forecast

Advertisements
Track Severe Weather on mobile